CXA828 RPLL-ZSAM
Flight info
| Callsign | CXA828 |
|---|---|
| Flight time | 1h 48m |
| Altitude | 34000 |
| Route | CAB A461 NOMAN DCT SANKU DCT SOUSA DCT DOTMI/M080S1040 A470 TEBON |
| Aircraft | B38M/M-SDE1FGHILORVWXY/HB1 |
Departure
| Time | 2026-05-06 12:07 |
|---|---|
| Airport | Ninoy Aquino International Airport (RPLL) |
Arrival
| Time | 2026-05-06 13:55 |
|---|---|
| Airport | Xiamen Gaoqi International Airport (ZSAM) |
| Time | Latitude | Longitude | Altitude | Speed | Heading |
|---|---|---|---|---|---|
| 2026-05-06 11:40 | 14.50470 | 121.00404 | 71 ft | 0 kts | 120° |
| 2026-05-06 11:56 | 14.50470 | 121.00403 | 71 ft | 1 kts | 120° |
| 2026-05-06 11:56 | 14.50483 | 121.00383 | 64 ft | 4 kts | 126° |
| 2026-05-06 11:56 | 14.50500 | 121.00362 | 65 ft | 4 kts | 136° |
| 2026-05-06 11:56 | 14.50521 | 121.00345 | 61 ft | 4 kts | 157° |
| 2026-05-06 11:57 | 14.50543 | 121.00343 | 65 ft | 4 kts | 213° |
| 2026-05-06 11:57 | 14.50547 | 121.00345 | 67 ft | 4 kts | 239° |
| 2026-05-06 11:57 | 14.50533 | 121.00322 | 64 ft | 4 kts | 232° |
| 2026-05-06 11:57 | 14.50513 | 121.00304 | 65 ft | 4 kts | 212° |
| 2026-05-06 11:58 | 14.50488 | 121.00295 | 68 ft | 4 kts | 188° |
| 2026-05-06 11:58 | 14.50480 | 121.00295 | 71 ft | 1 kts | 185° |
| 2026-05-06 12:01 | 14.50478 | 121.00295 | 64 ft | 1 kts | 185° |
| 2026-05-06 12:01 | 14.50463 | 121.00293 | 65 ft | 3 kts | 185° |
| 2026-05-06 12:01 | 14.50433 | 121.00291 | 63 ft | 5 kts | 185° |
| 2026-05-06 12:02 | 14.50388 | 121.00287 | 66 ft | 8 kts | 185° |
| 2026-05-06 12:02 | 14.50328 | 121.00282 | 67 ft | 10 kts | 185° |
| 2026-05-06 12:02 | 14.50254 | 121.00280 | 69 ft | 11 kts | 164° |
| 2026-05-06 12:02 | 14.50180 | 121.00322 | 69 ft | 13 kts | 150° |
| 2026-05-06 12:03 | 14.50113 | 121.00326 | 71 ft | 8 kts | 239° |
| 2026-05-06 12:03 | 14.50085 | 121.00271 | 67 ft | 9 kts | 240° |
| 2026-05-06 12:03 | 14.50049 | 121.00206 | 71 ft | 11 kts | 240° |
| 2026-05-06 12:03 | 14.50006 | 121.00130 | 67 ft | 13 kts | 240° |
| 2026-05-06 12:04 | 14.49959 | 121.00044 | 68 ft | 14 kts | 240° |
| 2026-05-06 12:04 | 14.49900 | 120.99969 | 69 ft | 10 kts | 197° |
| 2026-05-06 12:04 | 14.49829 | 120.99992 | 68 ft | 12 kts | 150° |
| 2026-05-06 12:04 | 14.49812 | 121.00054 | 72 ft | 7 kts | 64° |
| 2026-05-06 12:05 | 14.49817 | 121.00064 | 72 ft | 0 kts | 62° |
| 2026-05-06 12:06 | 14.49839 | 121.00105 | 66 ft | 27 kts | 60° |
| 2026-05-06 12:06 | 14.50066 | 121.00512 | 64 ft | 102 kts | 60° |
| 2026-05-06 12:06 | 14.50525 | 121.01353 | 67 ft | 161 kts | 62° |
| 2026-05-06 12:06 | 14.51103 | 121.02403 | 507 ft | 176 kts | 62° |
| 2026-05-06 12:07 | 14.51711 | 121.03502 | 1259 ft | 172 kts | 62° |
| 2026-05-06 12:07 | 14.52276 | 121.04561 | 1954 ft | 171 kts | 61° |
| 2026-05-06 12:07 | 14.52881 | 121.05631 | 2496 ft | 169 kts | 60° |
| 2026-05-06 12:07 | 14.53465 | 121.06693 | 2984 ft | 173 kts | 60° |
| 2026-05-06 12:08 | 14.54074 | 121.07784 | 3392 ft | 181 kts | 60° |
| 2026-05-06 12:08 | 14.54737 | 121.08972 | 3589 ft | 202 kts | 60° |
| 2026-05-06 12:08 | 14.55476 | 121.10297 | 3770 ft | 224 kts | 60° |
| 2026-05-06 12:08 | 14.56286 | 121.11741 | 4078 ft | 245 kts | 60° |
| 2026-05-06 12:09 | 14.57151 | 121.13268 | 4910 ft | 245 kts | 60° |
| 2026-05-06 12:09 | 14.58031 | 121.14833 | 5431 ft | 260 kts | 60° |
| 2026-05-06 12:09 | 14.58970 | 121.16495 | 5930 ft | 272 kts | 60° |
| 2026-05-06 12:09 | 14.59939 | 121.18173 | 6698 ft | 273 kts | 55° |
| 2026-05-06 12:10 | 14.61396 | 121.19413 | 7411 ft | 277 kts | 22° |
| 2026-05-06 12:10 | 14.63305 | 121.19746 | 8081 ft | 285 kts | 359° |
| 2026-05-06 12:10 | 14.65264 | 121.19361 | 8782 ft | 289 kts | 347° |
| 2026-05-06 12:10 | 14.67246 | 121.18947 | 9460 ft | 292 kts | 352° |
| 2026-05-06 12:11 | 14.69251 | 121.18564 | 10116 ft | 297 kts | 351° |
| 2026-05-06 12:11 | 14.71336 | 121.18160 | 10432 ft | 315 kts | 351° |
| 2026-05-06 12:11 | 14.73561 | 121.17730 | 10670 ft | 335 kts | 351° |
| 2026-05-06 12:11 | 14.75915 | 121.17273 | 10837 ft | 353 kts | 351° |
| 2026-05-06 12:12 | 14.78358 | 121.16793 | 11230 ft | 361 kts | 351° |
| 2026-05-06 12:12 | 14.80828 | 121.16297 | 11869 ft | 363 kts | 351° |
| 2026-05-06 12:12 | 14.83319 | 121.15790 | 12473 ft | 367 kts | 351° |
| 2026-05-06 12:12 | 14.85835 | 121.15276 | 13118 ft | 370 kts | 351° |
| 2026-05-06 12:13 | 14.88379 | 121.14756 | 13683 ft | 376 kts | 351° |
| 2026-05-06 12:13 | 14.90951 | 121.14229 | 13849 ft | 376 kts | 350° |
| 2026-05-06 12:13 | 14.93515 | 121.13702 | 13896 ft | 377 kts | 350° |
| 2026-05-06 12:13 | 14.96096 | 121.13174 | 14251 ft | 378 kts | 350° |
| 2026-05-06 12:14 | 14.98680 | 121.12641 | 14869 ft | 381 kts | 350° |
| 2026-05-06 12:14 | 15.01296 | 121.12103 | 15401 ft | 385 kts | 350° |
| 2026-05-06 12:14 | 15.03925 | 121.11565 | 15993 ft | 385 kts | 350° |
| 2026-05-06 12:14 | 15.06561 | 121.11022 | 16542 ft | 388 kts | 349° |
| 2026-05-06 12:15 | 15.09227 | 121.10475 | 17053 ft | 391 kts | 349° |
| 2026-05-06 12:15 | 15.11906 | 121.09923 | 17545 ft | 395 kts | 349° |
| 2026-05-06 12:15 | 15.14613 | 121.09367 | 18042 ft | 398 kts | 349° |
| 2026-05-06 12:15 | 15.17328 | 121.08807 | 18494 ft | 400 kts | 349° |
| 2026-05-06 12:16 | 15.20080 | 121.08241 | 18907 ft | 403 kts | 349° |
| 2026-05-06 12:16 | 15.22835 | 121.07673 | 19332 ft | 406 kts | 348° |
| 2026-05-06 12:16 | 15.25612 | 121.07100 | 19696 ft | 409 kts | 348° |
| 2026-05-06 12:16 | 15.28413 | 121.06523 | 20106 ft | 411 kts | 348° |
| 2026-05-06 12:17 | 15.31235 | 121.05941 | 20459 ft | 415 kts | 348° |
| 2026-05-06 12:17 | 15.34073 | 121.05355 | 20864 ft | 417 kts | 348° |
| 2026-05-06 12:17 | 15.36920 | 121.04768 | 21262 ft | 419 kts | 348° |
| 2026-05-06 12:17 | 15.39789 | 121.04175 | 21646 ft | 421 kts | 348° |
| 2026-05-06 12:18 | 15.42662 | 121.03581 | 22008 ft | 424 kts | 348° |
| 2026-05-06 12:18 | 15.45568 | 121.02980 | 22360 ft | 427 kts | 348° |
| 2026-05-06 12:18 | 15.48433 | 121.02175 | 22692 ft | 428 kts | 336° |
| 2026-05-06 12:18 | 15.51109 | 121.00823 | 23085 ft | 429 kts | 333° |
| 2026-05-06 12:19 | 15.53804 | 120.99436 | 23358 ft | 434 kts | 333° |
| 2026-05-06 12:19 | 15.56500 | 120.98026 | 23697 ft | 435 kts | 332° |
| 2026-05-06 12:19 | 15.59170 | 120.96615 | 24009 ft | 437 kts | 332° |
| 2026-05-06 12:19 | 15.61883 | 120.95174 | 24271 ft | 439 kts | 332° |
| 2026-05-06 12:20 | 15.64607 | 120.93726 | 24560 ft | 441 kts | 332° |
| 2026-05-06 12:20 | 15.67342 | 120.92271 | 24866 ft | 443 kts | 332° |
| 2026-05-06 12:20 | 15.70087 | 120.90810 | 25164 ft | 445 kts | 332° |
| 2026-05-06 12:20 | 15.72845 | 120.89342 | 25469 ft | 447 kts | 332° |
| 2026-05-06 12:21 | 15.75623 | 120.87863 | 25759 ft | 449 kts | 332° |
| 2026-05-06 12:21 | 15.78400 | 120.86384 | 26050 ft | 451 kts | 332° |
| 2026-05-06 12:21 | 15.81198 | 120.84893 | 26355 ft | 452 kts | 332° |
| 2026-05-06 12:21 | 15.83990 | 120.83405 | 26721 ft | 452 kts | 332° |
| 2026-05-06 12:22 | 15.86787 | 120.81914 | 27109 ft | 451 kts | 332° |
| 2026-05-06 12:22 | 15.89570 | 120.80430 | 27521 ft | 451 kts | 332° |
| 2026-05-06 12:22 | 15.92354 | 120.78945 | 27933 ft | 450 kts | 332° |
| 2026-05-06 12:22 | 15.95140 | 120.77458 | 28350 ft | 449 kts | 332° |
| 2026-05-06 12:23 | 15.97921 | 120.75973 | 28772 ft | 448 kts | 332° |
| 2026-05-06 12:23 | 16.00689 | 120.74495 | 29217 ft | 447 kts | 332° |
| 2026-05-06 12:23 | 16.03453 | 120.73019 | 29657 ft | 446 kts | 332° |
| 2026-05-06 12:23 | 16.06212 | 120.71545 | 30082 ft | 445 kts | 332° |
| 2026-05-06 12:24 | 16.08962 | 120.70075 | 30441 ft | 444 kts | 332° |
| 2026-05-06 12:24 | 16.11697 | 120.68613 | 30792 ft | 443 kts | 332° |
| 2026-05-06 12:24 | 16.14433 | 120.67150 | 31155 ft | 442 kts | 332° |
| 2026-05-06 12:24 | 16.17170 | 120.65686 | 31554 ft | 440 kts | 332° |
| 2026-05-06 12:25 | 16.19888 | 120.64231 | 31940 ft | 439 kts | 332° |
| 2026-05-06 12:25 | 16.22596 | 120.62781 | 32309 ft | 438 kts | 332° |
| 2026-05-06 12:25 | 16.25311 | 120.61327 | 32669 ft | 437 kts | 332° |
| 2026-05-06 12:25 | 16.28000 | 120.59887 | 33019 ft | 436 kts | 332° |
| 2026-05-06 12:26 | 16.30693 | 120.58444 | 33203 ft | 440 kts | 332° |
| 2026-05-06 12:26 | 16.33445 | 120.56969 | 33052 ft | 450 kts | 332° |
| 2026-05-06 12:26 | 16.39101 | 120.53936 | 33126 ft | 463 kts | 332° |
| 2026-05-06 12:27 | 16.44889 | 120.50830 | 33265 ft | 473 kts | 332° |
| 2026-05-06 12:27 | 16.47832 | 120.49250 | 33429 ft | 475 kts | 332° |
| 2026-05-06 12:27 | 16.50773 | 120.47671 | 33702 ft | 475 kts | 332° |
| 2026-05-06 12:28 | 16.53667 | 120.46116 | 33929 ft | 475 kts | 332° |
| 2026-05-06 12:28 | 16.56635 | 120.44521 | 33957 ft | 474 kts | 332° |
| 2026-05-06 12:28 | 16.62477 | 120.41380 | 33948 ft | 472 kts | 332° |
| 2026-05-06 12:29 | 16.68272 | 120.38263 | 33933 ft | 472 kts | 332° |
| 2026-05-06 12:29 | 16.73761 | 120.34625 | 33914 ft | 467 kts | 313° |
| 2026-05-06 12:30 | 16.78299 | 120.29772 | 33922 ft | 468 kts | 313° |
| 2026-05-06 12:30 | 16.82817 | 120.24865 | 33908 ft | 469 kts | 313° |
| 2026-05-06 12:31 | 16.87312 | 120.19939 | 33909 ft | 469 kts | 313° |
| 2026-05-06 12:31 | 16.91806 | 120.15006 | 33903 ft | 469 kts | 313° |
| 2026-05-06 12:32 | 16.96289 | 120.10083 | 33904 ft | 468 kts | 313° |
| 2026-05-06 12:32 | 17.00771 | 120.05156 | 33903 ft | 467 kts | 313° |
| 2026-05-06 12:33 | 17.05246 | 120.00233 | 33905 ft | 467 kts | 313° |
| 2026-05-06 12:33 | 17.09720 | 119.95309 | 33909 ft | 467 kts | 313° |
| 2026-05-06 12:34 | 17.14187 | 119.90388 | 33910 ft | 467 kts | 313° |
| 2026-05-06 12:34 | 17.18660 | 119.85457 | 33909 ft | 467 kts | 313° |
| 2026-05-06 12:35 | 17.23136 | 119.80518 | 33911 ft | 468 kts | 313° |
| 2026-05-06 12:35 | 17.27614 | 119.75574 | 33911 ft | 468 kts | 313° |
| 2026-05-06 12:36 | 17.32090 | 119.70628 | 33909 ft | 468 kts | 313° |
| 2026-05-06 12:36 | 17.36567 | 119.65677 | 33909 ft | 468 kts | 313° |
| 2026-05-06 12:37 | 17.41003 | 119.60769 | 33914 ft | 466 kts | 313° |
| 2026-05-06 12:37 | 17.45474 | 119.55817 | 33914 ft | 466 kts | 313° |
| 2026-05-06 12:38 | 17.49907 | 119.50903 | 33916 ft | 466 kts | 313° |
| 2026-05-06 12:38 | 17.54353 | 119.45972 | 33915 ft | 466 kts | 313° |
| 2026-05-06 12:39 | 17.58800 | 119.41036 | 33911 ft | 466 kts | 313° |
| 2026-05-06 12:39 | 17.63239 | 119.36105 | 33914 ft | 466 kts | 313° |
| 2026-05-06 12:40 | 17.66965 | 119.31963 | 33920 ft | 466 kts | 313° |
| 2026-05-06 12:40 | 17.71380 | 119.27052 | 33920 ft | 466 kts | 313° |
| 2026-05-06 12:41 | 17.75815 | 119.22113 | 33928 ft | 465 kts | 312° |
| 2026-05-06 12:41 | 17.80229 | 119.17196 | 33920 ft | 464 kts | 312° |
| 2026-05-06 12:42 | 17.84653 | 119.12264 | 33922 ft | 464 kts | 312° |
| 2026-05-06 12:42 | 17.89073 | 119.07332 | 33926 ft | 463 kts | 312° |
| 2026-05-06 12:43 | 17.93488 | 119.02402 | 33921 ft | 464 kts | 312° |
| 2026-05-06 12:43 | 17.97898 | 118.97475 | 33925 ft | 464 kts | 312° |
| 2026-05-06 12:44 | 18.02313 | 118.92533 | 33923 ft | 463 kts | 312° |
| 2026-05-06 12:44 | 18.06722 | 118.87597 | 33926 ft | 463 kts | 312° |
| 2026-05-06 12:45 | 18.11131 | 118.82656 | 33924 ft | 463 kts | 312° |
| 2026-05-06 12:46 | 18.17719 | 118.75268 | 33925 ft | 462 kts | 312° |
| 2026-05-06 12:46 | 18.22114 | 118.70333 | 33925 ft | 462 kts | 312° |
| 2026-05-06 12:47 | 18.26504 | 118.65400 | 33927 ft | 462 kts | 311° |
| 2026-05-06 12:47 | 18.30889 | 118.60470 | 33928 ft | 462 kts | 311° |
| 2026-05-06 12:48 | 18.35271 | 118.55540 | 33931 ft | 462 kts | 311° |
| 2026-05-06 12:48 | 18.39660 | 118.50596 | 33933 ft | 462 kts | 311° |
| 2026-05-06 12:49 | 18.44049 | 118.45649 | 33933 ft | 462 kts | 311° |
| 2026-05-06 12:49 | 18.48432 | 118.40705 | 33931 ft | 462 kts | 312° |
| 2026-05-06 12:50 | 18.52786 | 118.35789 | 33936 ft | 462 kts | 312° |
| 2026-05-06 12:50 | 18.57190 | 118.30813 | 33934 ft | 461 kts | 312° |
| 2026-05-06 12:51 | 18.61568 | 118.25863 | 33934 ft | 461 kts | 312° |
| 2026-05-06 12:51 | 18.65932 | 118.20923 | 33930 ft | 461 kts | 311° |
| 2026-05-06 12:52 | 18.70284 | 118.15995 | 33933 ft | 461 kts | 311° |
| 2026-05-06 12:52 | 18.74681 | 118.11010 | 33936 ft | 461 kts | 311° |
| 2026-05-06 12:53 | 18.79050 | 118.06053 | 33933 ft | 461 kts | 311° |
| 2026-05-06 12:53 | 18.83410 | 118.01104 | 33935 ft | 460 kts | 311° |
| 2026-05-06 12:54 | 18.87761 | 117.96159 | 33939 ft | 459 kts | 311° |
| 2026-05-06 12:54 | 18.92108 | 117.91215 | 33936 ft | 459 kts | 311° |
| 2026-05-06 12:55 | 18.96451 | 117.86273 | 33936 ft | 459 kts | 311° |
| 2026-05-06 12:55 | 19.00764 | 117.81361 | 33939 ft | 459 kts | 311° |
| 2026-05-06 12:56 | 19.05098 | 117.76418 | 33939 ft | 459 kts | 311° |
| 2026-05-06 12:56 | 19.09434 | 117.71470 | 33936 ft | 459 kts | 311° |
| 2026-05-06 12:57 | 19.13769 | 117.66519 | 33935 ft | 459 kts | 311° |
| 2026-05-06 12:57 | 19.18096 | 117.61574 | 33938 ft | 459 kts | 311° |
| 2026-05-06 12:58 | 19.22439 | 117.56606 | 33942 ft | 459 kts | 311° |
| 2026-05-06 12:58 | 19.26760 | 117.51659 | 33935 ft | 457 kts | 311° |
| 2026-05-06 12:59 | 19.31082 | 117.46707 | 33948 ft | 458 kts | 311° |
| 2026-05-06 12:59 | 19.35388 | 117.41768 | 33945 ft | 457 kts | 311° |
| 2026-05-06 13:00 | 19.39699 | 117.36821 | 33946 ft | 457 kts | 311° |
| 2026-05-06 13:00 | 19.44008 | 117.31871 | 33947 ft | 457 kts | 311° |
| 2026-05-06 13:01 | 19.48316 | 117.26918 | 33947 ft | 457 kts | 311° |
| 2026-05-06 13:01 | 19.52619 | 117.21967 | 33945 ft | 457 kts | 311° |
| 2026-05-06 13:02 | 19.56919 | 117.17014 | 33946 ft | 457 kts | 311° |
| 2026-05-06 13:02 | 19.61215 | 117.12061 | 33956 ft | 455 kts | 311° |
| 2026-05-06 13:03 | 19.65494 | 117.07126 | 33943 ft | 454 kts | 311° |
| 2026-05-06 13:03 | 19.69762 | 117.02199 | 33948 ft | 454 kts | 311° |
| 2026-05-06 13:04 | 19.74032 | 116.97265 | 33949 ft | 454 kts | 311° |
| 2026-05-06 13:04 | 19.78298 | 116.92331 | 33946 ft | 454 kts | 311° |
| 2026-05-06 13:05 | 19.82567 | 116.87389 | 33954 ft | 454 kts | 311° |
| 2026-05-06 13:05 | 19.86828 | 116.82453 | 33949 ft | 453 kts | 311° |
| 2026-05-06 13:06 | 19.91086 | 116.77517 | 33951 ft | 453 kts | 311° |
| 2026-05-06 13:06 | 19.95348 | 116.72572 | 33947 ft | 453 kts | 311° |
| 2026-05-06 13:07 | 19.99947 | 116.68074 | 33947 ft | 457 kts | 328° |
| 2026-05-06 13:07 | 20.02869 | 116.66774 | 33953 ft | 462 kts | 342° |
| 2026-05-06 13:07 | 20.06014 | 116.65997 | 33957 ft | 464 kts | 344° |
| 2026-05-06 13:08 | 20.12337 | 116.64558 | 33956 ft | 465 kts | 345° |
| 2026-05-06 13:08 | 20.18673 | 116.63192 | 33954 ft | 465 kts | 346° |
| 2026-05-06 13:09 | 20.25013 | 116.61838 | 33954 ft | 465 kts | 346° |
| 2026-05-06 13:09 | 20.31367 | 116.60482 | 33961 ft | 466 kts | 345° |
| 2026-05-06 13:10 | 20.37716 | 116.59126 | 33956 ft | 465 kts | 345° |
| 2026-05-06 13:10 | 20.44071 | 116.57767 | 33958 ft | 466 kts | 345° |
| 2026-05-06 13:11 | 20.50410 | 116.56410 | 33963 ft | 466 kts | 345° |
| 2026-05-06 13:11 | 20.56765 | 116.55049 | 33962 ft | 465 kts | 345° |
| 2026-05-06 13:12 | 20.63122 | 116.53687 | 33955 ft | 465 kts | 346° |
| 2026-05-06 13:12 | 20.69465 | 116.52325 | 33954 ft | 465 kts | 346° |
| 2026-05-06 13:13 | 20.75793 | 116.50967 | 33958 ft | 465 kts | 346° |
| 2026-05-06 13:13 | 20.82138 | 116.49603 | 33971 ft | 465 kts | 346° |
| 2026-05-06 13:14 | 20.88474 | 116.48240 | 33971 ft | 465 kts | 346° |
| 2026-05-06 13:14 | 20.94813 | 116.46876 | 33970 ft | 464 kts | 346° |
| 2026-05-06 13:15 | 21.01134 | 116.45514 | 33969 ft | 464 kts | 346° |
| 2026-05-06 13:15 | 21.07458 | 116.44150 | 33969 ft | 464 kts | 346° |
| 2026-05-06 13:16 | 21.13791 | 116.42783 | 33975 ft | 464 kts | 346° |
| 2026-05-06 13:16 | 21.20069 | 116.41427 | 33973 ft | 464 kts | 346° |
| 2026-05-06 13:17 | 21.26384 | 116.40061 | 33972 ft | 464 kts | 346° |
| 2026-05-06 13:17 | 21.32720 | 116.38690 | 33976 ft | 464 kts | 346° |
| 2026-05-06 13:18 | 21.39045 | 116.37320 | 33981 ft | 464 kts | 346° |
| 2026-05-06 13:18 | 21.45367 | 116.35950 | 33978 ft | 463 kts | 346° |
| 2026-05-06 13:19 | 21.51680 | 116.34565 | 33972 ft | 463 kts | 343° |
| 2026-05-06 13:19 | 21.57840 | 116.32627 | 33981 ft | 462 kts | 341° |
| 2026-05-06 13:20 | 21.64020 | 116.30723 | 33977 ft | 462 kts | 341° |
| 2026-05-06 13:20 | 21.70197 | 116.28836 | 33980 ft | 462 kts | 341° |
| 2026-05-06 13:21 | 21.76379 | 116.26946 | 33980 ft | 462 kts | 341° |
| 2026-05-06 13:21 | 21.82566 | 116.25054 | 33980 ft | 462 kts | 341° |
| 2026-05-06 13:22 | 21.88749 | 116.23161 | 33983 ft | 462 kts | 341° |
| 2026-05-06 13:22 | 21.93930 | 116.21574 | 33983 ft | 462 kts | 341° |
| 2026-05-06 13:23 | 22.01116 | 116.19404 | 33978 ft | 463 kts | 345° |
| 2026-05-06 13:23 | 22.06535 | 116.19014 | 33973 ft | 468 kts | 354° |
| 2026-05-06 13:24 | 22.13033 | 116.18760 | 33987 ft | 468 kts | 355° |
| 2026-05-06 13:24 | 22.19559 | 116.18538 | 33980 ft | 468 kts | 355° |
| 2026-05-06 13:25 | 22.26057 | 116.18325 | 33977 ft | 468 kts | 355° |
| 2026-05-06 13:25 | 22.32529 | 116.18114 | 34045 ft | 468 kts | 355° |
| 2026-05-06 13:26 | 22.39075 | 116.17901 | 34078 ft | 468 kts | 355° |
| 2026-05-06 13:26 | 22.45539 | 116.17691 | 34081 ft | 468 kts | 355° |
| 2026-05-06 13:27 | 22.52048 | 116.17479 | 34080 ft | 468 kts | 355° |
| 2026-05-06 13:27 | 22.58554 | 116.17267 | 34077 ft | 468 kts | 355° |
| 2026-05-06 13:28 | 22.65060 | 116.17055 | 34071 ft | 468 kts | 355° |
| 2026-05-06 13:28 | 22.68312 | 116.17026 | 33969 ft | 467 kts | 1° |
| 2026-05-06 13:28 | 22.71501 | 116.17698 | 33696 ft | 472 kts | 16° |
| 2026-05-06 13:28 | 22.74485 | 116.19255 | 33449 ft | 480 kts | 30° |
| 2026-05-06 13:29 | 22.77197 | 116.21385 | 33237 ft | 484 kts | 33° |
| 2026-05-06 13:29 | 22.79905 | 116.23566 | 33059 ft | 485 kts | 33° |
| 2026-05-06 13:29 | 22.82598 | 116.25768 | 33071 ft | 487 kts | 34° |
| 2026-05-06 13:30 | 22.88024 | 116.30259 | 33074 ft | 491 kts | 34° |
| 2026-05-06 13:30 | 22.93440 | 116.34759 | 33080 ft | 492 kts | 34° |
| 2026-05-06 13:31 | 22.98885 | 116.39253 | 33083 ft | 491 kts | 34° |
| 2026-05-06 13:31 | 23.04322 | 116.43745 | 33074 ft | 491 kts | 34° |
| 2026-05-06 13:31 | 23.07044 | 116.45995 | 32830 ft | 491 kts | 34° |
| 2026-05-06 13:32 | 23.09765 | 116.48246 | 32367 ft | 490 kts | 34° |
| 2026-05-06 13:32 | 23.12470 | 116.50486 | 31878 ft | 491 kts | 34° |
| 2026-05-06 13:32 | 23.15188 | 116.52736 | 31385 ft | 493 kts | 34° |
| 2026-05-06 13:32 | 23.17927 | 116.55005 | 30903 ft | 494 kts | 34° |
| 2026-05-06 13:33 | 23.20657 | 116.57269 | 30420 ft | 496 kts | 35° |
| 2026-05-06 13:33 | 23.23413 | 116.59554 | 29951 ft | 497 kts | 35° |
| 2026-05-06 13:33 | 23.26167 | 116.61839 | 29400 ft | 499 kts | 35° |
| 2026-05-06 13:33 | 23.28930 | 116.64133 | 28874 ft | 500 kts | 35° |
| 2026-05-06 13:34 | 23.31688 | 116.66424 | 28347 ft | 502 kts | 35° |
| 2026-05-06 13:34 | 23.34469 | 116.68736 | 27824 ft | 503 kts | 35° |
| 2026-05-06 13:34 | 23.37248 | 116.71046 | 27305 ft | 505 kts | 35° |
| 2026-05-06 13:34 | 23.40046 | 116.73375 | 26796 ft | 506 kts | 35° |
| 2026-05-06 13:35 | 23.42846 | 116.75708 | 26297 ft | 508 kts | 36° |
| 2026-05-06 13:35 | 23.45441 | 116.78327 | 25801 ft | 511 kts | 44° |
| 2026-05-06 13:35 | 23.47915 | 116.81114 | 25327 ft | 511 kts | 44° |
| 2026-05-06 13:35 | 23.50357 | 116.83874 | 24864 ft | 505 kts | 44° |
| 2026-05-06 13:36 | 23.52789 | 116.86631 | 24620 ft | 503 kts | 44° |
| 2026-05-06 13:36 | 23.55195 | 116.89360 | 24572 ft | 502 kts | 44° |
| 2026-05-06 13:36 | 23.57615 | 116.92109 | 24589 ft | 502 kts | 44° |
| 2026-05-06 13:36 | 23.60029 | 116.94852 | 24197 ft | 499 kts | 44° |
| 2026-05-06 13:37 | 23.62435 | 116.97588 | 23026 ft | 499 kts | 44° |
| 2026-05-06 13:37 | 23.64811 | 117.00291 | 21862 ft | 488 kts | 44° |
| 2026-05-06 13:37 | 23.67137 | 117.02940 | 20691 ft | 480 kts | 44° |
| 2026-05-06 13:37 | 23.69418 | 117.05537 | 19579 ft | 473 kts | 44° |
| 2026-05-06 13:38 | 23.71670 | 117.08103 | 18853 ft | 471 kts | 44° |
| 2026-05-06 13:38 | 23.73922 | 117.10671 | 18303 ft | 465 kts | 44° |
| 2026-05-06 13:38 | 23.76177 | 117.13212 | 17712 ft | 457 kts | 41° |
| 2026-05-06 13:38 | 23.78535 | 117.15488 | 17192 ft | 448 kts | 39° |
| 2026-05-06 13:39 | 23.80854 | 117.17724 | 16468 ft | 441 kts | 40° |
| 2026-05-06 13:39 | 23.83099 | 117.19911 | 15801 ft | 436 kts | 40° |
| 2026-05-06 13:39 | 23.85325 | 117.22090 | 15174 ft | 429 kts | 40° |
| 2026-05-06 13:39 | 23.87533 | 117.24256 | 14561 ft | 424 kts | 40° |
| 2026-05-06 13:40 | 23.89727 | 117.26410 | 13914 ft | 423 kts | 40° |
| 2026-05-06 13:40 | 23.91901 | 117.28545 | 13267 ft | 418 kts | 40° |
| 2026-05-06 13:40 | 23.94050 | 117.30656 | 12609 ft | 412 kts | 40° |
| 2026-05-06 13:40 | 23.96165 | 117.32735 | 12083 ft | 407 kts | 40° |
| 2026-05-06 13:41 | 23.98244 | 117.34781 | 11822 ft | 395 kts | 41° |
| 2026-05-06 13:41 | 24.00246 | 117.36748 | 11623 ft | 379 kts | 41° |
| 2026-05-06 13:41 | 24.02167 | 117.38640 | 11437 ft | 365 kts | 41° |
| 2026-05-06 13:41 | 24.04017 | 117.40462 | 11244 ft | 352 kts | 41° |
| 2026-05-06 13:42 | 24.05799 | 117.42218 | 11076 ft | 337 kts | 41° |
| 2026-05-06 13:42 | 24.07509 | 117.43899 | 10906 ft | 323 kts | 40° |
| 2026-05-06 13:42 | 24.09143 | 117.45510 | 10763 ft | 309 kts | 41° |
| 2026-05-06 13:42 | 24.10702 | 117.47050 | 10606 ft | 296 kts | 41° |
| 2026-05-06 13:43 | 24.12206 | 117.48531 | 10478 ft | 286 kts | 41° |
| 2026-05-06 13:43 | 24.13662 | 117.49980 | 10336 ft | 283 kts | 44° |
| 2026-05-06 13:43 | 24.15016 | 117.51591 | 10204 ft | 292 kts | 47° |
| 2026-05-06 13:43 | 24.16383 | 117.53255 | 10074 ft | 297 kts | 47° |
| 2026-05-06 13:44 | 24.17724 | 117.54988 | 9864 ft | 299 kts | 52° |
| 2026-05-06 13:44 | 24.19081 | 117.56729 | 9392 ft | 302 kts | 47° |
| 2026-05-06 13:44 | 24.20507 | 117.58423 | 8948 ft | 303 kts | 46° |
| 2026-05-06 13:44 | 24.21820 | 117.60199 | 8591 ft | 299 kts | 57° |
| 2026-05-06 13:45 | 24.22882 | 117.62126 | 8284 ft | 292 kts | 60° |
| 2026-05-06 13:45 | 24.24830 | 117.65855 | 7824 ft | 273 kts | 60° |
| 2026-05-06 13:45 | 24.25759 | 117.67626 | 7639 ft | 262 kts | 60° |
| 2026-05-06 13:46 | 24.26648 | 117.69316 | 7521 ft | 251 kts | 60° |
| 2026-05-06 13:46 | 24.27512 | 117.70953 | 7308 ft | 247 kts | 60° |
| 2026-05-06 13:46 | 24.28372 | 117.72579 | 7041 ft | 246 kts | 60° |
| 2026-05-06 13:46 | 24.29227 | 117.74194 | 6771 ft | 245 kts | 61° |
| 2026-05-06 13:47 | 24.30082 | 117.75802 | 6539 ft | 243 kts | 60° |
| 2026-05-06 13:47 | 24.30935 | 117.77402 | 6256 ft | 242 kts | 60° |
| 2026-05-06 13:47 | 24.31777 | 117.78989 | 6013 ft | 240 kts | 63° |
| 2026-05-06 13:47 | 24.32216 | 117.80699 | 5752 ft | 235 kts | 89° |
| 2026-05-06 13:48 | 24.32429 | 117.82463 | 5427 ft | 236 kts | 69° |
| 2026-05-06 13:48 | 24.33347 | 117.83913 | 5181 ft | 234 kts | 46° |
| 2026-05-06 13:48 | 24.34480 | 117.85229 | 4912 ft | 231 kts | 47° |
| 2026-05-06 13:48 | 24.35507 | 117.86503 | 4798 ft | 221 kts | 49° |
| 2026-05-06 13:49 | 24.36486 | 117.87775 | 4685 ft | 211 kts | 50° |
| 2026-05-06 13:49 | 24.37391 | 117.88990 | 4563 ft | 201 kts | 51° |
| 2026-05-06 13:49 | 24.38248 | 117.90160 | 4331 ft | 198 kts | 51° |
| 2026-05-06 13:49 | 24.39103 | 117.91337 | 4168 ft | 197 kts | 52° |
| 2026-05-06 13:50 | 24.39957 | 117.92519 | 4043 ft | 197 kts | 51° |
| 2026-05-06 13:50 | 24.40821 | 117.93721 | 3853 ft | 199 kts | 52° |
| 2026-05-06 13:50 | 24.41674 | 117.94910 | 3624 ft | 199 kts | 52° |
| 2026-05-06 13:50 | 24.42516 | 117.96088 | 3387 ft | 198 kts | 52° |
| 2026-05-06 13:51 | 24.43372 | 117.97284 | 3157 ft | 196 kts | 52° |
| 2026-05-06 13:51 | 24.44202 | 117.98445 | 2923 ft | 194 kts | 52° |
| 2026-05-06 13:51 | 24.45031 | 117.99605 | 2681 ft | 193 kts | 53° |
| 2026-05-06 13:51 | 24.45855 | 118.00762 | 2429 ft | 191 kts | 53° |
| 2026-05-06 13:52 | 24.46669 | 118.01900 | 2172 ft | 188 kts | 53° |
| 2026-05-06 13:52 | 24.47465 | 118.03016 | 1933 ft | 184 kts | 53° |
| 2026-05-06 13:52 | 24.48225 | 118.04083 | 1692 ft | 170 kts | 53° |
| 2026-05-06 13:52 | 24.48928 | 118.05069 | 1471 ft | 161 kts | 53° |
| 2026-05-06 13:53 | 24.49605 | 118.06017 | 1320 ft | 157 kts | 53° |
| 2026-05-06 13:53 | 24.50281 | 118.06966 | 1092 ft | 156 kts | 52° |
| 2026-05-06 13:53 | 24.50948 | 118.07893 | 882 ft | 153 kts | 52° |
| 2026-05-06 13:53 | 24.51603 | 118.08804 | 660 ft | 151 kts | 52° |
| 2026-05-06 13:54 | 24.52237 | 118.09709 | 504 ft | 148 kts | 53° |
| 2026-05-06 13:54 | 24.52879 | 118.10600 | 310 ft | 151 kts | 53° |
| 2026-05-06 13:54 | 24.53541 | 118.11537 | 107 ft | 156 kts | 53° |
| 2026-05-06 13:54 | 24.54162 | 118.12419 | 47 ft | 131 kts | 52° |
| 2026-05-06 13:55 | 24.54577 | 118.12994 | 46 ft | 67 kts | 51° |
| 2026-05-06 13:55 | 24.54796 | 118.13299 | 48 ft | 44 kts | 52° |
| 2026-05-06 13:55 | 24.54911 | 118.13512 | 49 ft | 21 kts | 72° |
| 2026-05-06 13:55 | 24.54937 | 118.13649 | 46 ft | 14 kts | 82° |
| 2026-05-06 13:56 | 24.54889 | 118.13704 | 47 ft | 11 kts | 197° |
| 2026-05-06 13:56 | 24.54828 | 118.13644 | 47 ft | 13 kts | 230° |
| 2026-05-06 13:56 | 24.54773 | 118.13559 | 45 ft | 15 kts | 232° |
| 2026-05-06 13:56 | 24.54705 | 118.13464 | 45 ft | 17 kts | 232° |
| 2026-05-06 13:57 | 24.54627 | 118.13356 | 47 ft | 19 kts | 232° |
| 2026-05-06 13:57 | 24.54541 | 118.13236 | 44 ft | 20 kts | 232° |
| 2026-05-06 13:57 | 24.54475 | 118.13156 | 47 ft | 8 kts | 198° |
| 2026-05-06 13:57 | 24.54416 | 118.13168 | 47 ft | 9 kts | 197° |
| 2026-05-06 13:58 | 24.54366 | 118.13110 | 45 ft | 12 kts | 232° |
| 2026-05-06 13:58 | 24.54311 | 118.13033 | 45 ft | 14 kts | 232° |
| 2026-05-06 13:58 | 24.54247 | 118.12942 | 47 ft | 16 kts | 232° |
| 2026-05-06 13:58 | 24.54186 | 118.12851 | 44 ft | 9 kts | 235° |
| 2026-05-06 13:59 | 24.54134 | 118.12846 | 47 ft | 10 kts | 145° |
| 2026-05-06 13:59 | 24.54071 | 118.12835 | 47 ft | 11 kts | 214° |
| 2026-05-06 13:59 | 24.54012 | 118.12843 | 47 ft | 4 kts | 145° |
| 2026-05-06 13:59 | 24.53995 | 118.12857 | 47 ft | 1 kts | 143° |
| 2026-05-06 14:00 | 24.53992 | 118.12859 | 47 ft | 0 kts | 143° |